Terminal Aerodrome Forecast
Issued by NWS Green Bay, WI

Home | Current Version | Previous Version | Text Only | Print | Product List | Glossary Off
Versions: 1 2 3 4 5 6 7 8 9 10 11 12 13 14 15 16 17 18 19 20 21 22 23 24 25

000
FTUS43 KGRB 130520
TAFGRB
TAF
KGRB 130520Z 1306/1406 17004KT P6SM SCT025 OVC050
      TEMPO 1307/1310 2SM -SN BKN025
     FM131000 13005KT 2SM -SN OVC025
     FM131200 06010KT 1SM -SN OVC012
     FM131900 04016G26KT 1SM -SN SCT012 OVC020
     FM140100 01011G17KT 5SM -SHSN BKN030
     FM140300 36008KT P6SM SCT040=

USA.gov is the U.S. government's official web portal to all federal, state and local government web resources and services.